createdAt,value
2022-08-19T00:02:09.155Z,19.74
2022-08-19T00:04:37.612Z,19.71
2022-08-19T00:07:06.606Z,19.72
2022-08-19T00:09:33.770Z,19.76
2022-08-19T00:12:01.525Z,19.82
2022-08-19T00:14:32.054Z,19.86
2022-08-19T00:17:00.051Z,19.91
2022-08-19T00:19:27.074Z,19.91
2022-08-19T00:21:54.825Z,19.91
2022-08-19T00:24:23.005Z,19.91
2022-08-19T00:26:51.118Z,19.90
2022-08-19T00:29:20.698Z,19.89
2022-08-19T00:31:48.670Z,19.91
2022-08-19T00:34:17.677Z,19.91
2022-08-19T00:36:45.535Z,19.91
2022-08-19T00:39:13.100Z,19.93
2022-08-19T00:41:41.170Z,19.95
2022-08-19T00:44:15.475Z,19.95
2022-08-19T00:46:45.529Z,19.93
2022-08-19T00:49:46.145Z,19.92
2022-08-19T00:52:24.256Z,19.90
2022-08-19T00:54:53.436Z,19.80
2022-08-19T00:57:26.763Z,19.67
2022-08-19T01:00:02.645Z,19.50
2022-08-19T01:02:32.749Z,19.40
2022-08-19T01:05:02.670Z,19.33
2022-08-19T01:07:37.642Z,19.25
2022-08-19T01:10:11.895Z,19.24
2022-08-19T01:12:39.670Z,19.25
2022-08-19T01:15:10.209Z,19.31
2022-08-19T01:17:40.007Z,19.36
2022-08-19T01:20:12.168Z,19.35
2022-08-19T01:23:08.618Z,19.35
2022-08-19T01:25:56.463Z,19.27
2022-08-19T01:28:40.030Z,19.17
2022-08-19T01:31:26.734Z,19.07
2022-08-19T01:33:57.253Z,19.02
2022-08-19T01:36:33.427Z,19.02
2022-08-19T01:39:02.086Z,19.00
2022-08-19T01:41:28.992Z,18.96
2022-08-19T01:44:13.941Z,18.89
2022-08-19T01:46:44.532Z,18.87
2022-08-19T01:49:11.918Z,18.83
2022-08-19T01:51:40.307Z,18.81
2022-08-19T01:54:09.893Z,18.71
2022-08-19T01:56:36.943Z,18.61
2022-08-19T01:59:10.397Z,18.55
2022-08-19T02:01:37.138Z,18.53
2022-08-19T02:04:04.018Z,18.48
2022-08-19T02:06:30.966Z,18.37
2022-08-19T02:08:57.988Z,18.36
2022-08-19T02:11:28.701Z,18.33
2022-08-19T02:13:56.229Z,18.33
2022-08-19T02:16:23.768Z,18.29
2022-08-19T02:18:50.888Z,18.26
2022-08-19T02:21:20.210Z,18.23
2022-08-19T02:23:47.397Z,18.24
2022-08-19T02:26:14.744Z,18.17
2022-08-19T02:28:43.214Z,18.16
2022-08-19T02:31:12.042Z,18.24
2022-08-19T02:33:39.772Z,18.26
2022-08-19T02:36:08.274Z,18.31
2022-08-19T02:38:35.583Z,18.28
2022-08-19T02:41:11.466Z,18.29
2022-08-19T02:43:40.652Z,18.31
2022-08-19T02:46:21.522Z,18.21
2022-08-19T02:48:53.755Z,18.10
2022-08-19T02:51:26.615Z,17.99
2022-08-19T02:53:54.125Z,17.91
2022-08-19T02:56:21.814Z,17.83
2022-08-19T02:58:49.382Z,17.77
2022-08-19T03:01:29.416Z,17.77
2022-08-19T03:04:00.611Z,17.81
2022-08-19T03:06:28.656Z,17.86
2022-08-19T03:08:57.161Z,17.82
2022-08-19T03:11:29.804Z,17.76
2022-08-19T03:13:57.995Z,17.72
2022-08-19T03:16:26.684Z,17.59
2022-08-19T03:18:56.811Z,17.52
2022-08-19T03:21:25.512Z,17.50
2022-08-19T03:23:57.562Z,17.50
2022-08-19T03:26:24.918Z,17.50
2022-08-19T03:28:58.703Z,17.50
2022-08-19T03:31:44.611Z,17.45
2022-08-19T03:34:19.961Z,17.50
2022-08-19T03:36:47.855Z,17.53
2022-08-19T03:39:15.903Z,17.54
2022-08-19T03:41:46.497Z,17.61
2022-08-19T03:44:19.077Z,17.71
2022-08-19T03:46:52.411Z,17.71
2022-08-19T03:49:21.101Z,17.73
2022-08-19T03:51:55.862Z,17.75
2022-08-19T03:54:24.825Z,17.77
2022-08-19T03:56:54.010Z,17.71
2022-08-19T03:59:26.369Z,17.65
2022-08-19T04:01:59.194Z,17.60
2022-08-19T04:04:29.330Z,17.60
2022-08-19T04:06:57.322Z,17.60
2022-08-19T04:09:24.938Z,17.55
2022-08-19T04:11:54.664Z,17.47
2022-08-19T04:14:25.007Z,17.48
2022-08-19T04:16:52.880Z,17.50
2022-08-19T04:19:20.368Z,17.53
2022-08-19T04:21:51.634Z,17.61
2022-08-19T04:24:19.421Z,17.70
2022-08-19T04:26:47.401Z,17.79
2022-08-19T04:29:22.244Z,17.87
2022-08-19T04:31:49.812Z,17.96
2022-08-19T04:34:22.904Z,18.02
2022-08-19T04:36:53.887Z,18.05
2022-08-19T04:39:45.410Z,18.06
2022-08-19T04:42:31.955Z,18.13
2022-08-19T04:44:59.075Z,18.21
2022-08-19T04:47:48.124Z,18.30
2022-08-19T04:50:12.758Z,18.32
2022-08-19T04:52:43.522Z,18.36
2022-08-19T04:55:11.669Z,18.42
2022-08-19T04:57:40.845Z,18.48
2022-08-19T05:00:09.858Z,18.55
2022-08-19T05:02:39.084Z,18.65
2022-08-19T05:05:07.138Z,18.80
2022-08-19T05:07:34.506Z,18.94
2022-08-19T05:10:02.569Z,19.05
2022-08-19T05:12:29.592Z,19.10
2022-08-19T05:14:58.647Z,19.18
2022-08-19T05:17:29.605Z,19.38
2022-08-19T05:20:16.231Z,19.67
2022-08-19T05:22:45.077Z,19.78
2022-08-19T05:25:19.074Z,19.86
2022-08-19T05:27:46.628Z,20.12
2022-08-19T05:30:13.697Z,20.33
2022-08-19T05:32:41.168Z,20.34
2022-08-19T05:35:08.805Z,20.36
2022-08-19T05:37:36.093Z,20.39
2022-08-19T05:40:04.615Z,20.45
2022-08-19T05:42:32.331Z,20.51
2022-08-19T05:44:59.250Z,20.56
2022-08-19T05:47:26.244Z,20.61
2022-08-19T05:49:53.146Z,20.73
2022-08-19T05:52:25.546Z,20.82
2022-08-19T05:54:56.250Z,20.91
2022-08-19T05:57:24.431Z,21.14
2022-08-19T05:59:56.743Z,21.37
2022-08-19T06:02:31.098Z,21.55
2022-08-19T06:04:57.982Z,21.70
2022-08-19T06:07:24.982Z,21.79
2022-08-19T06:09:59.133Z,21.98
2022-08-19T06:12:32.225Z,22.06
2022-08-19T06:15:01.239Z,22.16
2022-08-19T06:17:30.513Z,22.31
2022-08-19T06:19:58.723Z,22.50
2022-08-19T06:22:25.783Z,22.66
2022-08-19T06:24:54.300Z,22.86
2022-08-19T06:27:22.219Z,23.11
2022-08-19T06:29:50.173Z,23.68
2022-08-19T06:32:19.376Z,24.25
2022-08-19T06:34:46.598Z,24.74
2022-08-19T06:37:14.603Z,25.22
2022-08-19T06:39:44.213Z,25.73
2022-08-19T06:42:16.646Z,25.74
2022-08-19T06:44:49.276Z,25.97
2022-08-19T06:47:23.119Z,26.16
2022-08-19T06:50:03.537Z,26.35
2022-08-19T06:52:36.445Z,26.73
2022-08-19T06:55:06.408Z,27.07
2022-08-19T06:57:34.824Z,27.19
2022-08-19T07:00:02.402Z,27.15
2022-08-19T07:02:30.048Z,27.04
2022-08-19T07:04:58.515Z,27.09
2022-08-19T07:07:26.506Z,26.83
2022-08-19T07:09:58.356Z,26.79
2022-08-19T07:12:33.201Z,26.59
2022-08-19T07:15:00.145Z,26.63
2022-08-19T07:17:28.732Z,26.59
2022-08-19T07:19:55.895Z,26.57
2022-08-19T07:22:23.907Z,26.48
2022-08-19T07:24:52.232Z,26.37
2022-08-19T07:27:24.549Z,26.19
2022-08-19T07:29:54.535Z,26.22
2022-08-19T07:32:23.545Z,26.19
2022-08-19T07:34:50.485Z,26.18
2022-08-19T07:37:17.411Z,26.02
2022-08-19T07:39:44.987Z,26.02
2022-08-19T07:42:13.384Z,25.92
2022-08-19T07:47:47.882Z,25.89
2022-08-19T07:50:05.247Z,25.80
2022-08-19T07:52:36.818Z,25.80
2022-08-19T07:55:06.289Z,25.67
2022-08-19T07:57:39.626Z,25.64
2022-08-19T08:00:07.632Z,25.68
2022-08-19T08:02:39.716Z,25.73
2022-08-19T08:05:25.920Z,25.79
2022-08-19T08:08:11.710Z,25.88
2022-08-19T08:10:38.792Z,25.93
2022-08-19T08:13:10.411Z,25.90
2022-08-19T08:15:42.977Z,25.86
2022-08-19T08:18:11.710Z,25.88
2022-08-19T08:20:39.555Z,25.96
2022-08-19T08:23:25.346Z,26.02
2022-08-19T08:25:55.436Z,26.09
2022-08-19T08:28:23.773Z,26.13
2022-08-19T08:30:52.450Z,26.19
2022-08-19T08:33:32.995Z,26.25
2022-08-19T08:36:05.679Z,26.36
2022-08-19T08:38:39.139Z,26.43
2022-08-19T08:41:45.261Z,26.54
2022-08-19T08:44:21.886Z,26.60
2022-08-19T08:46:55.766Z,26.70
2022-08-19T08:49:47.990Z,26.84
2022-08-19T08:52:43.746Z,26.92
2022-08-19T08:55:14.677Z,27.07
2022-08-19T08:58:04.970Z,27.23
2022-08-19T09:00:35.168Z,27.38
2022-08-19T09:03:04.451Z,27.50
2022-08-19T09:05:56.997Z,27.73
2022-08-19T09:08:27.017Z,28.17
2022-08-19T09:10:56.148Z,28.57
2022-08-19T09:13:38.220Z,28.98
2022-08-19T09:16:15.244Z,29.34
2022-08-19T09:18:55.348Z,29.79
2022-08-19T09:21:30.293Z,30.19
2022-08-19T09:24:03.329Z,30.53
2022-08-19T09:26:47.665Z,30.61
2022-08-19T09:29:22.664Z,30.67
2022-08-19T09:31:50.656Z,30.83
2022-08-19T09:34:21.389Z,31.13
2022-08-19T09:36:53.752Z,31.10
2022-08-19T09:39:20.532Z,30.70
2022-08-19T09:41:49.168Z,30.50
2022-08-19T09:44:16.954Z,30.46
2022-08-19T09:46:47.390Z,30.39
2022-08-19T09:49:15.143Z,30.29
2022-08-19T09:51:41.911Z,30.25
2022-08-19T09:54:11.291Z,30.20
2022-08-19T09:56:38.307Z,30.13
2022-08-19T09:59:05.286Z,30.07
2022-08-19T10:01:33.736Z,29.98
2022-08-19T10:04:06.395Z,29.91
2022-08-19T10:06:46.727Z,29.80
2022-08-19T10:09:17.445Z,29.76
2022-08-19T10:11:54.538Z,29.75
2022-08-19T10:14:24.163Z,29.78
2022-08-19T10:16:51.915Z,29.76
2022-08-19T10:19:25.718Z,29.75
2022-08-19T10:21:54.354Z,29.70
2022-08-19T10:24:24.932Z,29.70
2022-08-19T10:26:55.783Z,29.69
2022-08-19T10:29:32.470Z,29.63
2022-08-19T10:32:09.640Z,29.63
2022-08-19T10:34:38.515Z,29.67
2022-08-19T10:37:28.937Z,29.57
2022-08-19T10:39:58.474Z,29.58
2022-08-19T10:42:25.500Z,29.69
2022-08-19T10:44:52.288Z,29.70
2022-08-19T10:47:25.538Z,29.79
2022-08-19T10:50:13.579Z,29.81
2022-08-19T10:52:48.925Z,29.95
2022-08-19T10:55:42.910Z,29.98
2022-08-19T10:58:16.017Z,30.05
2022-08-19T11:00:44.191Z,30.16
2022-08-19T11:03:11.266Z,30.17
2022-08-19T11:05:40.220Z,30.24
2022-08-19T11:08:22.349Z,30.35
2022-08-19T11:10:55.840Z,30.43
2022-08-19T11:13:23.682Z,30.39
2022-08-19T11:16:15.384Z,30.26
2022-08-19T11:18:48.818Z,30.23
2022-08-19T11:21:25.161Z,30.28
2022-08-19T11:23:57.001Z,30.26
2022-08-19T11:26:26.229Z,30.17
2022-08-19T11:28:55.325Z,30.18
2022-08-19T11:31:28.997Z,30.21
2022-08-19T11:33:58.331Z,30.19
2022-08-19T11:36:25.219Z,30.32
2022-08-19T11:38:52.941Z,30.35
2022-08-19T11:41:23.732Z,30.38
2022-08-19T11:43:55.777Z,30.30
2022-08-19T11:46:24.802Z,30.35
2022-08-19T11:48:52.537Z,30.49
2022-08-19T11:51:23.567Z,30.60
2022-08-19T11:53:51.729Z,30.60
2022-08-19T11:56:20.719Z,30.67
2022-08-19T11:58:47.962Z,30.77
2022-08-19T12:01:18.301Z,30.82
2022-08-19T12:03:47.557Z,30.84
2022-08-19T12:06:24.374Z,30.73
2022-08-19T12:08:51.326Z,30.62
2022-08-19T12:11:18.588Z,30.67
2022-08-19T12:13:46.334Z,30.76
2022-08-19T12:16:18.416Z,30.87
2022-08-19T12:18:47.112Z,30.88
2022-08-19T12:21:15.890Z,30.80
2022-08-19T12:23:43.656Z,30.86
2022-08-19T12:26:11.685Z,30.87
2022-08-19T12:28:39.004Z,30.89
2022-08-19T12:31:06.343Z,30.94
2022-08-19T12:33:33.598Z,30.99
2022-08-19T12:36:05.852Z,30.99
2022-08-19T12:38:34.997Z,30.93
2022-08-19T12:41:06.608Z,31.02
2022-08-19T12:43:35.501Z,31.06
2022-08-19T12:46:04.818Z,31.12
2022-08-19T12:48:35.045Z,31.13
2022-08-19T12:51:08.534Z,31.17
2022-08-19T12:53:39.368Z,31.17
2022-08-19T12:56:12.658Z,31.15
2022-08-19T12:58:42.096Z,31.17
2022-08-19T13:01:17.797Z,31.16
2022-08-19T13:03:54.041Z,31.26
2022-08-19T13:06:22.112Z,31.32
2022-08-19T13:08:49.222Z,31.24
2022-08-19T13:11:18.322Z,31.25
2022-08-19T13:13:48.034Z,31.33
2022-08-19T13:16:16.009Z,31.35
2022-08-19T13:18:45.512Z,31.35
2022-08-19T13:21:13.800Z,31.35
2022-08-19T13:23:41.660Z,31.34
2022-08-19T13:26:10.282Z,31.38
2022-08-19T13:28:56.485Z,31.35
2022-08-19T13:31:43.956Z,31.31
2022-08-19T13:34:11.727Z,31.36
2022-08-19T13:36:39.402Z,31.38
2022-08-19T13:39:11.131Z,31.34
2022-08-19T13:41:43.558Z,31.24
2022-08-19T13:44:10.297Z,31.21
2022-08-19T13:46:37.357Z,31.23
2022-08-19T13:49:04.890Z,31.22
2022-08-19T13:51:31.837Z,31.19
2022-08-19T13:53:58.989Z,31.23
2022-08-19T13:56:26.595Z,31.30
2022-08-19T13:58:54.228Z,31.33
2022-08-19T14:01:24.549Z,31.26
2022-08-19T14:03:51.928Z,31.20
2022-08-19T14:06:19.751Z,31.19
2022-08-19T14:08:46.747Z,31.20
2022-08-19T14:11:13.558Z,31.15
2022-08-19T14:13:40.406Z,31.07
2022-08-19T14:16:12.906Z,31.10
2022-08-19T14:18:40.542Z,31.14
2022-08-19T14:21:08.046Z,31.15
2022-08-19T14:23:36.603Z,31.15
2022-08-19T14:26:10.599Z,31.07
2022-08-19T14:28:39.325Z,30.97
2022-08-19T14:31:06.059Z,30.83
2022-08-19T14:33:33.071Z,30.88
2022-08-19T14:36:00.986Z,30.86
2022-08-19T14:38:31.988Z,30.73
2022-08-19T14:41:18.190Z,30.77
2022-08-19T14:43:47.186Z,30.78
2022-08-19T14:46:16.189Z,30.78
2022-08-19T14:48:44.970Z,30.78
2022-08-19T14:51:12.354Z,30.73
2022-08-19T14:53:39.387Z,30.72
2022-08-19T14:56:15.949Z,30.69
2022-08-19T14:58:44.390Z,30.65
2022-08-19T15:01:13.429Z,30.64
2022-08-19T15:03:41.501Z,30.60
2022-08-19T15:06:09.477Z,30.58
2022-08-19T15:08:43.357Z,30.50
2022-08-19T15:11:14.789Z,30.43
2022-08-19T15:13:43.227Z,30.38
2022-08-19T15:16:18.203Z,30.34
2022-08-19T15:18:47.183Z,30.30
2022-08-19T15:21:25.048Z,30.22
2022-08-19T15:23:56.406Z,30.13
2022-08-19T15:26:25.231Z,30.14
2022-08-19T15:28:52.774Z,30.11
2022-08-19T15:31:28.361Z,30.09
2022-08-19T15:34:00.163Z,30.06
2022-08-19T15:36:27.961Z,30.01
2022-08-19T15:38:56.589Z,29.98
2022-08-19T15:41:28.528Z,29.95
2022-08-19T15:44:00.238Z,29.93
2022-08-19T15:46:30.449Z,29.89
2022-08-19T15:48:59.926Z,29.84
2022-08-19T15:51:32.994Z,29.79
2022-08-19T15:54:00.352Z,29.76
2022-08-19T15:56:47.751Z,29.71
2022-08-19T15:59:47.492Z,29.65
2022-08-19T16:02:37.167Z,29.57
2022-08-19T16:05:26.425Z,29.52
2022-08-19T16:07:54.018Z,29.48
2022-08-19T16:10:27.313Z,29.44
2022-08-19T16:12:55.326Z,29.40
2022-08-19T16:15:22.800Z,29.33
2022-08-19T16:17:57.431Z,29.28
2022-08-19T16:20:27.172Z,29.23
2022-08-19T16:22:57.797Z,29.16
2022-08-19T16:25:28.080Z,29.09
2022-08-19T16:28:07.971Z,29.03
2022-08-19T16:30:38.375Z,28.95
2022-08-19T16:33:06.143Z,28.87
2022-08-19T16:35:33.011Z,28.82
2022-08-19T16:38:00.959Z,28.76
2022-08-19T16:40:28.009Z,28.70
2022-08-19T16:42:55.262Z,28.63
2022-08-19T16:45:22.144Z,28.56
2022-08-19T16:47:50.126Z,28.48
2022-08-19T16:50:22.350Z,28.41
2022-08-19T16:53:00.462Z,28.33
2022-08-19T16:55:28.030Z,28.25
2022-08-19T16:57:55.044Z,28.16
2022-08-19T17:00:22.860Z,28.09
2022-08-19T17:02:50.014Z,28.01
2022-08-19T17:05:17.036Z,27.93
2022-08-19T17:07:44.292Z,27.86
2022-08-19T17:10:11.054Z,27.81
2022-08-19T17:12:38.023Z,27.74
2022-08-19T17:15:10.458Z,27.67
2022-08-19T17:17:37.207Z,27.62
2022-08-19T17:20:05.503Z,27.57
2022-08-19T17:22:32.464Z,27.52
2022-08-19T17:24:59.779Z,27.41
2022-08-19T17:27:31.996Z,27.29
2022-08-19T17:30:01.793Z,27.19
2022-08-19T17:32:28.710Z,27.12
2022-08-19T17:34:55.760Z,27.05
2022-08-19T17:37:22.694Z,26.97
2022-08-19T17:39:49.704Z,26.89
2022-08-19T17:42:17.018Z,26.82
2022-08-19T17:44:50.320Z,26.73
2022-08-19T17:47:18.990Z,26.64
2022-08-19T17:49:45.840Z,26.56
2022-08-19T17:52:12.787Z,26.45
2022-08-19T17:54:39.633Z,26.34
2022-08-19T17:57:06.390Z,26.26
2022-08-19T17:59:33.949Z,26.17
2022-08-19T18:02:00.975Z,26.08
2022-08-19T18:04:29.364Z,25.98
2022-08-19T18:06:56.450Z,25.89
2022-08-19T18:09:28.089Z,25.79
2022-08-19T18:11:56.924Z,25.71
2022-08-19T18:14:32.142Z,25.63
2022-08-19T18:17:08.850Z,25.50
2022-08-19T18:19:41.429Z,25.38
2022-08-19T18:22:22.972Z,25.22
2022-08-19T18:24:50.875Z,25.08
2022-08-19T18:27:17.598Z,25.03
2022-08-19T18:29:44.929Z,24.95
2022-08-19T18:32:12.498Z,24.88
2022-08-19T18:34:41.638Z,24.83
2022-08-19T18:37:09.445Z,24.78
2022-08-19T18:39:55.339Z,24.70
2022-08-19T18:42:41.942Z,24.60
2022-08-19T18:45:28.897Z,24.55
2022-08-19T18:48:26.912Z,24.49
2022-08-19T18:50:57.859Z,24.45
2022-08-19T18:53:28.105Z,24.43
2022-08-19T18:55:55.831Z,24.38
2022-08-19T18:58:34.597Z,24.28
2022-08-19T19:01:10.065Z,24.23
2022-08-19T19:03:41.412Z,24.18
2022-08-19T19:06:08.743Z,24.11
2022-08-19T19:08:41.358Z,24.07
2022-08-19T19:11:09.296Z,23.97
2022-08-19T19:13:39.349Z,23.92
2022-08-19T19:16:11.854Z,23.86
2022-08-19T19:18:38.941Z,23.78
2022-08-19T19:21:07.833Z,23.67
2022-08-19T19:23:40.330Z,23.57
2022-08-19T19:26:10.041Z,23.49
2022-08-19T19:28:42.898Z,23.39
2022-08-19T19:31:18.868Z,23.31
2022-08-19T19:33:46.129Z,23.24
2022-08-19T19:36:13.580Z,23.20
2022-08-19T19:38:48.595Z,23.17
2022-08-19T19:41:22.946Z,23.15
2022-08-19T19:44:10.006Z,23.14
2022-08-19T19:46:42.009Z,23.12
2022-08-19T19:49:10.197Z,23.13
2022-08-19T19:51:39.950Z,23.14
2022-08-19T19:54:13.017Z,23.15
2022-08-19T19:56:45.583Z,23.15
2022-08-19T19:59:12.563Z,23.13
2022-08-19T20:01:45.783Z,23.07
2022-08-19T20:04:13.694Z,22.99
2022-08-19T20:06:42.760Z,22.95
2022-08-19T20:09:10.588Z,22.88
2022-08-19T20:11:53.630Z,22.82
2022-08-19T20:14:31.282Z,22.79
2022-08-19T20:16:59.148Z,22.74
2022-08-19T20:19:36.738Z,22.71
2022-08-19T20:22:05.741Z,22.67
2022-08-19T20:24:35.683Z,22.66
2022-08-19T20:27:04.865Z,22.62
2022-08-19T20:29:38.514Z,22.52
2022-08-19T20:32:08.792Z,22.41
2022-08-19T20:34:36.765Z,22.38
2022-08-19T20:37:04.099Z,22.39
2022-08-19T20:39:31.285Z,22.43
2022-08-19T20:41:58.010Z,22.41
2022-08-19T20:44:24.855Z,22.41
2022-08-19T20:46:54.639Z,22.38
2022-08-19T20:49:27.243Z,22.35
2022-08-19T20:51:58.012Z,22.30
2022-08-19T20:54:25.481Z,22.27
2022-08-19T20:56:53.217Z,22.28
2022-08-19T20:59:20.787Z,22.26
2022-08-19T21:01:48.233Z,22.17
2022-08-19T21:04:15.186Z,22.10
2022-08-19T21:06:42.305Z,22.01
2022-08-19T21:09:13.186Z,21.96
2022-08-19T21:11:40.623Z,21.87
2022-08-19T21:14:08.003Z,21.79
2022-08-19T21:16:35.337Z,21.72
2022-08-19T21:19:02.796Z,21.63
2022-08-19T21:21:32.365Z,21.59
2022-08-19T21:23:59.556Z,21.55
2022-08-19T21:26:27.028Z,21.50
2022-08-19T21:28:53.780Z,21.43
2022-08-19T21:31:21.118Z,21.41
2022-08-19T21:33:48.149Z,21.44
2022-08-19T21:36:15.009Z,21.47
2022-08-19T21:38:41.839Z,21.46
2022-08-19T21:41:09.106Z,21.48
2022-08-19T21:43:38.131Z,21.47
2022-08-19T21:46:06.584Z,21.38
2022-08-19T21:48:33.574Z,21.37
2022-08-19T21:51:00.396Z,21.35
2022-08-19T21:53:31.677Z,21.33
2022-08-19T21:56:03.269Z,21.37
2022-08-19T21:58:30.626Z,21.38
2022-08-19T22:01:05.261Z,21.34
2022-08-19T22:03:33.970Z,21.29
2022-08-19T22:06:01.209Z,21.22
2022-08-19T22:08:29.384Z,21.16
2022-08-19T22:10:58.798Z,21.07
2022-08-19T22:13:26.452Z,21.07
2022-08-19T22:15:54.833Z,21.14
2022-08-19T22:18:21.780Z,21.15
2022-08-19T22:20:48.661Z,21.16
2022-08-19T22:23:15.673Z,21.16
2022-08-19T22:25:46.665Z,21.14
2022-08-19T22:28:18.998Z,21.16
2022-08-19T22:30:55.577Z,21.16
2022-08-19T22:33:25.375Z,21.10
2022-08-19T22:35:53.077Z,21.06
2022-08-19T22:38:20.192Z,21.04
2022-08-19T22:40:52.257Z,21.01
2022-08-19T22:43:25.659Z,20.93
2022-08-19T22:45:54.962Z,20.84
2022-08-19T22:48:24.977Z,20.90
2022-08-19T22:51:11.484Z,20.91
2022-08-19T22:53:40.920Z,20.88
2022-08-19T22:56:14.496Z,20.84
2022-08-19T22:58:43.523Z,20.79
2022-08-19T23:01:23.742Z,20.72
2022-08-19T23:03:58.357Z,20.63
2022-08-19T23:06:27.960Z,20.62
2022-08-19T23:09:06.079Z,20.58
2022-08-19T23:11:41.413Z,20.54
2022-08-19T23:14:10.629Z,20.53
2022-08-19T23:16:37.890Z,20.55
2022-08-19T23:19:06.989Z,20.52
2022-08-19T23:21:35.659Z,20.43
2022-08-19T23:24:03.237Z,20.39
2022-08-19T23:26:33.884Z,20.35
2022-08-19T23:29:22.640Z,20.32
2022-08-19T23:31:49.792Z,20.29
2022-08-19T23:34:17.650Z,20.29
2022-08-19T23:36:45.736Z,20.33
2022-08-19T23:39:12.671Z,20.36
2022-08-19T23:41:39.552Z,20.36
2022-08-19T23:44:06.462Z,20.36
2022-08-19T23:46:54.342Z,20.24
2022-08-19T23:49:24.224Z,20.23
2022-08-19T23:51:52.322Z,20.20
2022-08-19T23:54:19.152Z,20.13
2022-08-19T23:56:46.002Z,20.16
2022-08-19T23:59:12.925Z,20.20
